createdAt,value
2023-04-08T00:00:09.803Z,28.10
2023-04-08T00:03:32.639Z,28.20
2023-04-08T00:06:35.281Z,28.10
2023-04-08T00:09:37.531Z,28.20
2023-04-08T00:12:39.764Z,28.60
2023-04-08T00:15:42.331Z,28.60
2023-04-08T00:18:44.252Z,28.40
2023-04-08T00:21:46.423Z,28.70
2023-04-08T00:24:48.388Z,28.90
2023-04-08T00:27:50.758Z,28.70
2023-04-08T00:30:53.974Z,27.80
2023-04-08T00:33:56.620Z,28.30
2023-04-08T00:36:59.140Z,28.10
2023-04-08T00:40:01.429Z,27.90
2023-04-08T00:43:03.454Z,27.80
2023-04-08T00:46:06.058Z,28.10
2023-04-08T00:49:08.508Z,27.90
2023-04-08T00:52:11.130Z,28.20
2023-04-08T00:55:13.058Z,28.00
2023-04-08T00:58:15.661Z,28.30
2023-04-08T01:01:37.270Z,28.60
2023-04-08T01:04:58.379Z,28.80
2023-04-08T01:08:05.397Z,29.00
2023-04-08T01:11:11.918Z,29.10
2023-04-08T01:14:20.250Z,29.10
2023-04-08T01:17:22.831Z,29.00
2023-04-08T01:20:26.556Z,28.70
2023-04-08T01:24:02.192Z,28.80
2023-04-08T01:27:05.620Z,28.80
2023-04-08T01:30:09.261Z,28.80
2023-04-08T01:33:15.022Z,28.80
2023-04-08T01:36:20.574Z,28.90
2023-04-08T01:39:23.233Z,28.90
2023-04-08T01:42:28.605Z,28.80
2023-04-08T01:45:31.328Z,28.80
2023-04-08T01:48:34.276Z,28.60
2023-04-08T01:51:38.914Z,28.50
2023-04-08T01:54:41.204Z,28.60
2023-04-08T01:57:47.858Z,28.40
2023-04-08T02:00:51.730Z,28.10
2023-04-08T02:03:57.428Z,28.20
2023-04-08T02:07:01.167Z,28.40
2023-04-08T02:10:04.102Z,28.10
2023-04-08T02:13:06.585Z,28.20
2023-04-08T02:16:36.824Z,28.40
2023-04-08T02:19:52.805Z,28.30
2023-04-08T02:23:07.737Z,28.00
2023-04-08T02:26:14.467Z,27.90
2023-04-08T02:29:17.262Z,28.20
2023-04-08T02:32:20.360Z,27.80
2023-04-08T02:35:24.082Z,28.00
2023-04-08T02:38:29.815Z,27.90
2023-04-08T02:41:31.830Z,27.40
2023-04-08T02:44:34.113Z,27.40
2023-04-08T02:47:36.426Z,27.00
2023-04-08T02:50:40.011Z,27.20
2023-04-08T02:53:41.917Z,27.30
2023-04-08T02:56:44.341Z,27.40
2023-04-08T02:59:46.211Z,27.60
2023-04-08T03:02:48.602Z,27.50
2023-04-08T03:05:50.792Z,27.70
2023-04-08T03:08:53.134Z,27.50
2023-04-08T03:11:55.489Z,27.60
2023-04-08T03:14:57.813Z,27.40
2023-04-08T03:18:00.271Z,27.70
2023-04-08T03:21:03.362Z,27.60
2023-04-08T03:24:05.466Z,27.30
2023-04-08T03:27:08.503Z,27.70
2023-04-08T03:30:10.985Z,27.70
2023-04-08T03:33:13.338Z,27.60
2023-04-08T03:36:15.412Z,27.30
2023-04-08T03:39:18.005Z,27.40
2023-04-08T03:42:19.966Z,27.30
2023-04-08T03:45:22.352Z,27.40
2023-04-08T03:48:24.361Z,27.60
2023-04-08T03:51:27.298Z,27.80
2023-04-08T03:54:29.264Z,27.90
2023-04-08T03:57:31.499Z,27.90
2023-04-08T04:00:33.547Z,28.10
2023-04-08T04:03:35.883Z,28.10
2023-04-08T04:06:37.989Z,28.10
2023-04-08T04:09:40.325Z,28.10
2023-04-08T04:12:42.251Z,28.10
2023-04-08T04:15:44.822Z,28.20
2023-04-08T04:18:46.899Z,28.20
2023-04-08T04:21:49.266Z,28.20
2023-04-08T04:24:51.184Z,28.00
2023-04-08T04:27:53.514Z,28.10
2023-04-08T04:30:56.785Z,28.10
2023-04-08T04:33:59.206Z,27.90
2023-04-08T04:37:01.397Z,28.00
2023-04-08T04:40:07.586Z,28.10
2023-04-08T04:43:10.077Z,28.30
2023-04-08T04:46:12.324Z,28.30
2023-04-08T04:49:14.265Z,28.30
2023-04-08T04:52:16.697Z,28.50
2023-04-08T04:55:18.807Z,28.50
2023-04-08T04:58:21.188Z,28.60
2023-04-08T05:01:23.353Z,28.40
2023-04-08T05:04:26.322Z,28.40
2023-04-08T05:07:28.424Z,28.30
2023-04-08T05:10:31.092Z,28.70
2023-04-08T05:13:33.018Z,28.70
2023-04-08T05:16:35.471Z,28.60
2023-04-08T05:19:37.479Z,28.70
2023-04-08T05:22:39.666Z,28.90
2023-04-08T05:25:41.608Z,29.00
2023-04-08T05:28:43.867Z,29.20
2023-04-08T05:31:46.369Z,28.80
2023-04-08T05:34:48.707Z,29.20
2023-04-08T05:37:50.688Z,29.20
2023-04-08T05:40:52.837Z,28.70
2023-04-08T05:43:54.777Z,28.70
2023-04-08T05:46:57.875Z,28.50
2023-04-08T05:49:59.819Z,28.30
2023-04-08T05:53:02.067Z,28.20
2023-04-08T05:56:04.186Z,28.00
2023-04-08T05:59:06.356Z,28.50
2023-04-08T06:02:08.483Z,28.40
2023-04-08T06:05:10.924Z,28.70
2023-04-08T06:08:12.939Z,28.20
2023-04-08T06:11:15.440Z,28.30
2023-04-08T06:14:17.513Z,28.30
2023-04-08T06:17:19.791Z,28.00
2023-04-08T06:20:21.865Z,28.20
2023-04-08T06:23:24.075Z,28.60
2023-04-08T06:26:26.265Z,28.30
2023-04-08T06:29:29.949Z,27.90
2023-04-08T06:32:31.991Z,28.00
2023-04-08T06:35:34.321Z,28.30
2023-04-08T06:38:36.608Z,28.40
2023-04-08T06:41:38.832Z,28.50
2023-04-08T06:44:40.850Z,28.40
2023-04-08T06:47:43.011Z,28.40
2023-04-08T06:50:44.949Z,28.50
2023-04-08T06:53:47.518Z,28.20
2023-04-08T06:56:49.463Z,28.60
2023-04-08T06:59:53.496Z,28.30
2023-04-08T07:02:55.488Z,28.90
2023-04-08T07:05:57.856Z,28.60
2023-04-08T07:08:59.808Z,28.50
2023-04-08T07:12:03.750Z,28.40
2023-04-08T07:15:06.340Z,28.30
2023-04-08T07:18:08.716Z,28.70
2023-04-08T07:21:10.787Z,29.30
2023-04-08T07:24:13.026Z,29.30
2023-04-08T07:27:15.916Z,29.10
2023-04-08T07:30:18.499Z,29.20
2023-04-08T07:33:20.423Z,29.20
2023-04-08T07:36:22.841Z,29.70
2023-04-08T07:39:24.740Z,30.00
2023-04-08T07:42:27.387Z,30.40
2023-04-08T07:45:29.232Z,30.20
2023-04-08T07:48:32.740Z,30.40
2023-04-08T07:51:34.734Z,30.80
2023-04-08T07:54:37.074Z,30.90
2023-04-08T07:57:39.135Z,31.00
2023-04-08T08:00:41.782Z,31.10
2023-04-08T08:03:44.013Z,31.20
2023-04-08T08:06:47.545Z,31.10
2023-04-08T08:09:49.534Z,31.00
2023-04-08T08:12:51.808Z,30.90
2023-04-08T08:15:53.962Z,30.80
2023-04-08T08:18:56.692Z,30.70
2023-04-08T08:21:58.724Z,30.30
2023-04-08T08:25:00.967Z,30.20
2023-04-08T08:28:03.149Z,30.70
2023-04-08T08:31:06.224Z,29.60
2023-04-08T08:34:08.662Z,29.00
2023-04-08T08:37:11.098Z,29.80
2023-04-08T08:40:14.392Z,29.40
2023-04-08T08:43:16.666Z,29.70
2023-04-08T08:46:19.478Z,29.70
2023-04-08T08:49:21.990Z,30.00
2023-04-08T08:52:24.402Z,29.60
2023-04-08T08:55:44.798Z,29.10
2023-04-08T08:58:49.249Z,29.70
2023-04-08T09:01:51.674Z,30.20
2023-04-08T09:04:58.767Z,30.10
2023-04-08T09:08:01.174Z,30.40
2023-04-08T09:11:15.259Z,30.50
2023-04-08T09:14:25.595Z,30.50
2023-04-08T09:17:33.650Z,30.30
2023-04-08T09:20:36.276Z,30.00
2023-04-08T09:23:46.468Z,29.70
2023-04-08T09:26:48.724Z,29.70
2023-04-08T09:29:50.770Z,29.80
2023-04-08T09:32:57.588Z,29.80
2023-04-08T09:35:59.664Z,30.00
2023-04-08T09:39:01.980Z,29.50
2023-04-08T09:42:11.537Z,29.80
2023-04-08T09:46:03.095Z,29.00
2023-04-08T09:50:07.697Z,29.40
2023-04-08T09:53:32.855Z,29.40
2023-04-08T09:57:08.066Z,28.90
2023-04-08T10:00:34.943Z,29.00
2023-04-08T10:04:27.703Z,28.30
2023-04-08T10:11:17.276Z,29.10
2023-04-08T10:14:46.578Z,29.50
2023-04-08T10:18:09.186Z,29.30
2023-04-08T10:21:50.966Z,29.70
2023-04-08T10:25:31.763Z,28.50
2023-04-08T10:28:52.075Z,28.90
2023-04-08T10:31:54.206Z,30.00
2023-04-08T10:35:09.851Z,29.40
2023-04-08T10:38:16.031Z,29.10
2023-04-08T10:41:24.565Z,29.40
2023-04-08T10:44:26.918Z,29.70
2023-04-08T10:47:29.249Z,30.40
2023-04-08T10:50:48.202Z,30.30
2023-04-08T10:53:50.721Z,30.80
2023-04-08T10:57:56.451Z,31.30
2023-04-08T11:08:13.454Z,32.10
2023-04-08T11:15:14.106Z,32.30
2023-04-08T11:18:51.154Z,32.00
2023-04-08T11:22:07.869Z,32.50
2023-04-08T11:26:08.749Z,32.70
2023-04-08T11:30:26.244Z,32.70
2023-04-08T11:33:35.218Z,32.50
2023-04-08T11:37:39.603Z,32.10
2023-04-08T11:41:18.032Z,31.90
2023-04-08T11:45:07.075Z,32.10
2023-04-08T11:48:43.924Z,32.10
2023-04-08T11:52:44.376Z,32.20
2023-04-08T12:03:45.379Z,33.00
2023-04-08T12:07:20.625Z,33.20
2023-04-08T12:10:26.134Z,33.10
2023-04-08T12:13:56.559Z,32.90
2023-04-08T12:16:59.010Z,33.10
2023-04-08T12:20:01.523Z,33.00
2023-04-08T12:23:03.752Z,33.50
2023-04-08T12:26:05.947Z,33.60
2023-04-08T12:29:47.386Z,33.60
2023-04-08T12:36:56.842Z,33.40
2023-04-08T12:39:58.868Z,32.80
2023-04-08T12:43:01.066Z,32.70
2023-04-08T12:53:06.445Z,31.90
2023-04-08T12:56:47.483Z,32.00
2023-04-08T13:00:04.217Z,32.00
2023-04-08T13:03:20.254Z,31.70
2023-04-08T13:06:44.686Z,32.30
2023-04-08T13:09:50.015Z,32.70
2023-04-08T13:13:21.248Z,32.70
2023-04-08T13:17:02.745Z,32.80
2023-04-08T13:20:45.597Z,32.60
2023-04-08T13:24:04.779Z,32.70
2023-04-08T13:27:07.241Z,32.60
2023-04-08T13:30:27.275Z,32.60
2023-04-08T13:33:54.512Z,32.60
2023-04-08T13:37:01.162Z,32.30
2023-04-08T13:40:21.758Z,32.40
2023-04-08T13:43:29.578Z,32.20
2023-04-08T13:46:43.857Z,31.70
2023-04-08T13:53:37.052Z,32.80
2023-04-08T13:56:39.018Z,32.90
2023-04-08T13:59:43.273Z,32.90
2023-04-08T14:02:46.554Z,32.80
2023-04-08T14:07:11.918Z,32.70
2023-04-08T14:10:49.756Z,32.30
2023-04-08T14:13:55.497Z,32.10
2023-04-08T14:16:57.833Z,32.70
2023-04-08T14:20:16.264Z,32.80
2023-04-08T14:27:57.304Z,32.60
2023-04-08T14:31:00.576Z,32.80
2023-04-08T14:34:39.631Z,32.70
2023-04-08T14:38:25.211Z,31.60
2023-04-08T14:41:28.136Z,31.80
2023-04-08T14:44:57.636Z,31.50
2023-04-08T14:48:06.509Z,31.50
2023-04-08T14:51:08.499Z,31.70
2023-04-08T14:58:53.620Z,32.30
2023-04-08T15:02:13.141Z,32.10
2023-04-08T15:05:40.027Z,32.60
2023-04-08T15:09:20.282Z,32.80
2023-04-08T15:16:34.958Z,32.80
2023-04-08T15:23:19.284Z,31.20
2023-04-08T15:27:09.473Z,31.50
2023-04-08T15:30:14.947Z,32.10
2023-04-08T15:33:16.923Z,32.20
2023-04-08T15:40:25.778Z,32.60
2023-04-08T15:43:28.166Z,32.30
2023-04-08T15:46:30.483Z,32.30
2023-04-08T15:54:32.425Z,32.80
2023-04-08T15:57:59.208Z,32.60
2023-04-08T16:01:43.355Z,32.10
2023-04-08T16:04:46.331Z,32.60
2023-04-08T16:07:48.293Z,32.80
2023-04-08T16:11:19.503Z,32.40
2023-04-08T16:14:30.128Z,32.60
2023-04-08T16:18:00.458Z,32.50
2023-04-08T16:21:57.420Z,32.10
2023-04-08T16:25:06.693Z,32.20
2023-04-08T16:28:14.856Z,32.30
2023-04-08T16:31:20.171Z,32.30
2023-04-08T16:34:40.470Z,32.60
2023-04-08T16:37:45.823Z,32.60
2023-04-08T16:41:06.283Z,32.50
2023-04-08T16:44:12.549Z,32.60
2023-04-08T16:47:40.533Z,32.80
2023-04-08T16:50:51.958Z,32.80
2023-04-08T16:54:04.512Z,32.90
2023-04-08T16:57:16.624Z,33.00
2023-04-08T17:00:21.038Z,32.90
2023-04-08T17:12:23.820Z,32.40
2023-04-08T17:15:26.299Z,32.40
2023-04-08T17:18:28.317Z,32.40
2023-04-08T17:22:49.312Z,32.20
2023-04-08T17:26:22.218Z,32.00
2023-04-08T17:30:23.742Z,31.90
2023-04-08T17:33:26.298Z,31.70
2023-04-08T17:37:38.170Z,31.80
2023-04-08T17:44:38.413Z,31.80
2023-04-08T17:47:43.136Z,31.80
2023-04-08T17:50:45.381Z,31.60
2023-04-08T17:53:47.344Z,31.60
2023-04-08T17:56:49.732Z,31.40
2023-04-08T17:59:51.726Z,31.30
2023-04-08T18:02:53.990Z,31.20
2023-04-08T18:05:56.183Z,31.10
2023-04-08T18:08:58.678Z,31.00
2023-04-08T18:12:00.650Z,30.90
2023-04-08T18:15:03.316Z,30.80
2023-04-08T18:18:05.523Z,30.70
2023-04-08T18:21:08.776Z,30.60
2023-04-08T18:24:10.665Z,30.50
2023-04-08T18:27:12.932Z,30.40
2023-04-08T18:30:15.333Z,30.40
2023-04-08T18:33:17.527Z,30.40
2023-04-08T18:36:19.696Z,30.40
2023-04-08T18:39:22.624Z,30.10
2023-04-08T18:42:24.762Z,29.70
2023-04-08T18:45:27.012Z,29.50
2023-04-08T18:48:29.519Z,29.40
2023-04-08T18:51:31.744Z,29.80
2023-04-08T18:54:33.848Z,30.00
2023-04-08T18:57:36.224Z,30.00
2023-04-08T19:00:41.986Z,29.90
2023-04-08T19:03:44.408Z,29.90
2023-04-08T19:06:46.520Z,29.90
2023-04-08T19:09:48.810Z,29.90
2023-04-08T19:12:51.427Z,29.80
2023-04-08T19:15:53.730Z,29.80
2023-04-08T19:18:56.167Z,29.70
2023-04-08T19:21:58.461Z,29.70
2023-04-08T19:25:00.476Z,29.70
2023-04-08T19:28:02.949Z,29.70
2023-04-08T19:31:04.996Z,29.70
2023-04-08T19:34:07.271Z,29.60
2023-04-08T19:37:09.310Z,29.60
2023-04-08T19:40:11.782Z,29.60
2023-04-08T19:43:17.643Z,29.60
2023-04-08T19:46:19.910Z,29.50
2023-04-08T19:49:22.111Z,29.40
2023-04-08T19:52:24.355Z,29.40
2023-04-08T19:55:26.694Z,29.40
2023-04-08T19:58:29.111Z,29.40
2023-04-08T20:01:31.588Z,29.30
2023-04-08T20:04:34.196Z,29.20
2023-04-08T20:07:36.776Z,29.20
2023-04-08T20:10:38.998Z,29.20
2023-04-08T20:13:41.321Z,29.20
2023-04-08T20:16:43.772Z,29.20
2023-04-08T20:19:45.701Z,29.20
2023-04-08T20:22:47.988Z,29.10
2023-04-08T20:25:50.268Z,29.10
2023-04-08T20:28:52.865Z,29.10
2023-04-08T20:31:55.240Z,29.00
2023-04-08T20:34:59.665Z,29.00
2023-04-08T20:38:01.656Z,29.00
2023-04-08T20:41:04.055Z,29.00
2023-04-08T20:44:07.120Z,29.00
2023-04-08T20:47:09.935Z,29.00
2023-04-08T20:50:12.415Z,29.00
2023-04-08T20:53:14.674Z,29.00
2023-04-08T20:56:16.743Z,29.00
2023-04-08T20:59:19.007Z,29.00
2023-04-08T21:02:21.694Z,29.00
2023-04-08T21:05:24.089Z,29.00
2023-04-08T21:08:26.197Z,29.00
2023-04-08T21:11:30.590Z,28.90
2023-04-08T21:14:32.664Z,28.90
2023-04-08T21:17:35.201Z,28.90
2023-04-08T21:20:40.804Z,28.90
2023-04-08T21:23:43.028Z,29.00
2023-04-08T21:26:45.030Z,29.00
2023-04-08T21:29:52.343Z,29.10
2023-04-08T21:32:54.882Z,29.10
2023-04-08T21:35:57.155Z,29.10
2023-04-08T21:38:59.134Z,29.10
2023-04-08T21:42:01.649Z,29.20
2023-04-08T21:45:03.910Z,29.30
2023-04-08T21:48:07.027Z,29.30
2023-04-08T21:51:09.010Z,29.40
2023-04-08T21:54:12.520Z,29.40
2023-04-08T21:57:14.442Z,29.40
2023-04-08T22:00:16.657Z,29.40
2023-04-08T22:03:18.817Z,29.30
2023-04-08T22:06:31.595Z,29.30
2023-04-08T22:09:34.881Z,29.30
2023-04-08T22:12:37.101Z,29.30
2023-04-08T22:15:40.747Z,29.30
2023-04-08T22:18:43.130Z,29.30
2023-04-08T22:21:45.148Z,29.30
2023-04-08T22:24:47.396Z,29.40
2023-04-08T22:27:49.484Z,29.40
2023-04-08T22:30:54.990Z,29.40
2023-04-08T22:33:57.133Z,29.50
2023-04-08T22:36:59.362Z,29.50
2023-04-08T22:40:01.719Z,29.40
2023-04-08T22:43:04.035Z,29.50
2023-04-08T22:46:06.021Z,29.50
2023-04-08T22:49:08.338Z,29.50
2023-04-08T22:52:10.791Z,29.60
2023-04-08T22:55:13.111Z,29.50
2023-04-08T22:58:15.589Z,28.60
2023-04-08T23:01:20.981Z,27.90
2023-04-08T23:04:22.945Z,26.40
2023-04-08T23:07:25.493Z,26.20
2023-04-08T23:10:27.415Z,25.90
2023-04-08T23:13:29.844Z,26.30
2023-04-08T23:16:32.075Z,26.00
2023-04-08T23:19:34.337Z,26.00
2023-04-08T23:22:36.321Z,26.80
2023-04-08T23:25:38.563Z,27.10
2023-04-08T23:28:40.688Z,27.10
2023-04-08T23:31:42.989Z,27.70
2023-04-08T23:34:44.995Z,28.00
2023-04-08T23:37:47.270Z,28.70
2023-04-08T23:40:50.746Z,29.30
2023-04-08T23:43:52.988Z,29.70
2023-04-08T23:46:55.332Z,30.00
2023-04-08T23:49:57.548Z,30.20
2023-04-08T23:52:59.659Z,30.40
2023-04-08T23:56:06.571Z,30.50
2023-04-08T23:59:08.634Z,30.60
